createdAt,value
2019-03-24T00:01:21.041Z,13.78
2019-03-24T00:02:55.325Z,13.53
2019-03-24T00:04:29.366Z,13.63
2019-03-24T00:06:04.015Z,12.95
2019-03-24T00:07:38.372Z,12.70
2019-03-24T00:09:12.593Z,12.47
2019-03-24T00:10:46.907Z,12.28
2019-03-24T00:12:20.593Z,12.07
2019-03-24T00:13:54.234Z,14.00
2019-03-24T00:15:28.546Z,12.05
2019-03-24T00:17:02.859Z,14.53
2019-03-24T00:18:37.115Z,14.25
2019-03-24T00:20:14.486Z,13.00
2019-03-24T00:21:48.997Z,14.53
2019-03-24T00:23:23.256Z,14.07
2019-03-24T00:24:57.564Z,15.03
2019-03-24T00:26:31.799Z,14.18
2019-03-24T00:28:06.105Z,15.48
2019-03-24T00:29:40.468Z,16.07
2019-03-24T00:31:14.724Z,14.70
2019-03-24T00:32:48.938Z,16.20
2019-03-24T00:34:23.211Z,14.35
2019-03-24T00:35:57.500Z,14.20
2019-03-24T00:37:32.048Z,15.25
2019-03-24T00:39:07.136Z,15.40
2019-03-24T00:40:41.416Z,14.38
2019-03-24T00:42:15.662Z,14.20
2019-03-24T00:43:49.972Z,14.13
2019-03-24T00:45:24.310Z,13.55
2019-03-24T00:46:58.546Z,14.23
2019-03-24T00:48:32.780Z,14.25
2019-03-24T00:50:07.826Z,14.68
2019-03-24T00:51:42.089Z,14.80
2019-03-24T00:53:16.391Z,15.70
2019-03-24T00:54:50.668Z,15.93
2019-03-24T00:56:24.932Z,15.40
2019-03-24T00:57:59.165Z,16.20
2019-03-24T00:59:33.454Z,15.20
2019-03-24T01:01:07.828Z,16.25
2019-03-24T01:02:42.121Z,15.48
2019-03-24T01:04:16.442Z,15.28
2019-03-24T01:05:51.179Z,14.78
2019-03-24T01:07:25.451Z,13.08
2019-03-24T01:08:59.695Z,13.62
2019-03-24T01:10:34.004Z,13.68
2019-03-24T01:12:07.739Z,14.27
2019-03-24T01:13:41.492Z,13.20
2019-03-24T01:15:15.108Z,13.37
2019-03-24T01:16:48.754Z,12.43
2019-03-24T01:18:22.487Z,13.07
2019-03-24T01:19:56.143Z,13.50
2019-03-24T01:21:29.795Z,13.20
2019-03-24T01:23:04.701Z,12.67
2019-03-24T01:24:38.402Z,12.83
2019-03-24T01:26:12.031Z,13.83
2019-03-24T01:27:45.749Z,13.17
2019-03-24T01:29:19.393Z,13.60
2019-03-24T01:30:53.076Z,13.10
2019-03-24T01:32:26.809Z,12.63
2019-03-24T01:34:00.454Z,12.97
2019-03-24T01:35:34.187Z,15.37
2019-03-24T01:37:08.488Z,13.70
2019-03-24T01:38:42.630Z,14.70
2019-03-24T01:40:16.284Z,14.90
2019-03-24T01:41:49.917Z,16.00
2019-03-24T01:43:24.195Z,15.15
2019-03-24T01:44:57.887Z,15.30
2019-03-24T01:46:31.600Z,16.63
2019-03-24T01:48:05.441Z,16.17
2019-03-24T01:49:39.081Z,16.30
2019-03-24T01:51:12.768Z,16.30
2019-03-24T01:52:46.449Z,16.00
2019-03-24T01:54:20.701Z,15.93
2019-03-24T01:55:54.388Z,16.97
2019-03-24T01:57:28.121Z,15.17
2019-03-24T01:59:01.878Z,15.93
2019-03-24T02:00:35.580Z,15.90
2019-03-24T02:02:09.380Z,15.43
2019-03-24T02:03:43.609Z,16.27
2019-03-24T02:05:17.344Z,15.40
2019-03-24T02:06:51.676Z,15.10
2019-03-24T02:08:25.326Z,15.80
2019-03-24T02:09:59.010Z,15.60
2019-03-24T02:11:32.736Z,19.83
2019-03-24T02:13:06.364Z,14.53
2019-03-24T02:14:40.091Z,15.17
2019-03-24T02:16:14.427Z,15.00
2019-03-24T02:17:48.155Z,14.67
2019-03-24T02:19:21.857Z,12.70
2019-03-24T02:20:55.610Z,12.90
2019-03-24T02:22:29.275Z,12.83
2019-03-24T02:24:02.988Z,12.43
2019-03-24T02:25:37.060Z,12.90
2019-03-24T02:27:10.737Z,31.93
2019-03-24T02:28:45.037Z,26.57
2019-03-24T02:30:18.680Z,34.13
2019-03-24T02:31:52.328Z,14.97
2019-03-24T02:33:26.067Z,12.37
2019-03-24T02:34:59.718Z,12.93
2019-03-24T02:36:33.409Z,12.47
2019-03-24T02:38:07.143Z,12.63
2019-03-24T02:39:40.773Z,14.30
2019-03-24T02:41:15.566Z,12.90
2019-03-24T02:42:49.340Z,11.83
2019-03-24T02:44:23.374Z,12.97
2019-03-24T02:45:57.103Z,11.53
2019-03-24T02:47:30.746Z,12.83
2019-03-24T02:49:04.459Z,12.00
2019-03-24T02:50:38.182Z,38.20
2019-03-24T02:52:11.880Z,37.20
2019-03-24T02:53:45.615Z,24.60
2019-03-24T02:55:19.960Z,24.90
2019-03-24T02:56:54.473Z,15.30
2019-03-24T02:58:28.122Z,10.40
2019-03-24T03:00:02.479Z,17.45
2019-03-24T03:01:36.192Z,13.40
2019-03-24T03:03:09.883Z,16.03
2019-03-24T03:04:43.502Z,15.30
2019-03-24T03:06:17.301Z,11.53
2019-03-24T03:07:51.168Z,10.30
2019-03-24T03:09:24.856Z,10.13
2019-03-24T03:10:58.629Z,13.37
2019-03-24T03:12:32.666Z,10.57
2019-03-24T03:14:06.412Z,11.87
2019-03-24T03:15:40.112Z,14.43
2019-03-24T03:17:13.882Z,14.43
2019-03-24T03:18:47.595Z,14.87
2019-03-24T03:20:21.309Z,15.43
2019-03-24T03:21:54.972Z,13.30
2019-03-24T03:23:28.714Z,11.63
2019-03-24T03:25:02.410Z,12.80
2019-03-24T03:26:36.058Z,13.00
2019-03-24T03:28:10.316Z,13.57
2019-03-24T03:29:44.015Z,13.40
2019-03-24T03:31:17.762Z,13.40
2019-03-24T03:32:51.569Z,13.33
2019-03-24T03:34:25.348Z,14.07
2019-03-24T03:35:59.001Z,12.80
2019-03-24T03:37:32.683Z,12.57
2019-03-24T03:39:07.399Z,11.10
2019-03-24T03:40:41.094Z,11.60
2019-03-24T03:42:14.888Z,12.03
2019-03-24T03:43:48.538Z,10.53
2019-03-24T03:45:27.078Z,10.77
2019-03-24T03:47:00.733Z,9.40
2019-03-24T03:48:34.417Z,9.63
2019-03-24T03:50:08.868Z,10.33
2019-03-24T03:51:42.550Z,10.40
2019-03-24T03:53:16.193Z,11.27
2019-03-24T03:54:49.880Z,12.80
2019-03-24T03:56:23.488Z,11.37
2019-03-24T03:57:57.274Z,12.53
2019-03-24T03:59:31.226Z,10.75
2019-03-24T04:01:05.040Z,10.40
2019-03-24T04:02:38.795Z,10.67
2019-03-24T04:04:12.537Z,9.50
2019-03-24T04:05:46.192Z,9.73
2019-03-24T04:07:19.820Z,9.70
2019-03-24T04:08:54.548Z,8.38
2019-03-24T04:10:28.235Z,8.20
2019-03-24T04:12:01.953Z,10.03
2019-03-24T04:13:35.618Z,9.80
2019-03-24T04:15:09.751Z,7.50
2019-03-24T04:16:43.525Z,8.77
2019-03-24T04:18:17.187Z,8.87
2019-03-24T04:19:50.835Z,9.07
2019-03-24T04:21:24.483Z,8.63
2019-03-24T04:22:58.168Z,9.00
2019-03-24T04:24:31.880Z,7.90
2019-03-24T04:26:05.590Z,8.53
2019-03-24T04:27:39.290Z,9.90
2019-03-24T04:29:13.048Z,12.00
2019-03-24T04:30:46.685Z,8.17
2019-03-24T04:32:22.408Z,10.25
2019-03-24T04:33:56.099Z,10.30
2019-03-24T04:35:29.836Z,9.00
2019-03-24T04:37:03.539Z,8.53
2019-03-24T04:38:37.226Z,8.77
2019-03-24T04:40:10.939Z,8.23
2019-03-24T04:41:44.579Z,8.20
2019-03-24T04:43:18.329Z,8.40
2019-03-24T04:44:52.051Z,9.47
2019-03-24T04:46:25.763Z,9.50
2019-03-24T04:47:59.448Z,9.20
2019-03-24T04:49:33.109Z,9.07
2019-03-24T04:51:06.736Z,9.40
2019-03-24T04:52:40.395Z,9.20
2019-03-24T04:54:14.174Z,8.83
2019-03-24T04:55:47.832Z,11.00
2019-03-24T04:57:21.538Z,16.80
2019-03-24T04:58:55.180Z,22.27
2019-03-24T05:00:39.895Z,24.60
2019-03-24T05:02:13.648Z,16.60
2019-03-24T05:03:47.300Z,11.20
2019-03-24T05:05:21.010Z,11.40
2019-03-24T05:06:55.029Z,10.37
2019-03-24T05:08:30.268Z,11.27
2019-03-24T05:10:06.010Z,11.43
2019-03-24T05:11:39.724Z,11.53
2019-03-24T05:13:13.353Z,11.03
2019-03-24T05:14:47.024Z,11.17
2019-03-24T05:16:21.382Z,8.93
2019-03-24T05:17:55.671Z,9.53
2019-03-24T05:19:29.990Z,8.60
2019-03-24T05:21:04.304Z,8.30
2019-03-24T05:22:38.671Z,12.90
2019-03-24T05:24:12.833Z,8.28
2019-03-24T05:25:47.149Z,8.45
2019-03-24T05:27:21.502Z,8.08
2019-03-24T05:28:55.798Z,8.40
2019-03-24T05:30:30.088Z,8.40
2019-03-24T05:32:04.732Z,7.37
2019-03-24T05:33:39.036Z,9.15
2019-03-24T05:35:13.278Z,9.33
2019-03-24T05:36:47.625Z,9.55
2019-03-24T05:38:21.914Z,8.70
2019-03-24T05:39:56.261Z,8.53
2019-03-24T05:41:30.594Z,8.18
2019-03-24T05:43:04.838Z,7.22
2019-03-24T05:44:39.108Z,8.15
2019-03-24T05:46:13.411Z,8.75
2019-03-24T05:47:47.758Z,8.83
2019-03-24T05:49:21.995Z,10.85
2019-03-24T05:50:56.253Z,10.35
2019-03-24T05:52:30.552Z,9.75
2019-03-24T05:54:04.977Z,9.65
2019-03-24T05:55:39.267Z,10.10
2019-03-24T05:57:15.703Z,11.38
2019-03-24T05:58:50.041Z,10.28
2019-03-24T06:00:24.338Z,9.48
2019-03-24T06:01:58.655Z,10.05
2019-03-24T06:03:32.973Z,10.48
2019-03-24T06:05:07.658Z,9.53
2019-03-24T06:06:43.344Z,10.35
2019-03-24T06:08:17.581Z,10.95
2019-03-24T06:09:51.813Z,10.53
2019-03-24T06:11:26.608Z,11.22
2019-03-24T06:13:02.083Z,12.43
2019-03-24T06:14:36.391Z,11.57
2019-03-24T06:16:10.706Z,13.43
2019-03-24T06:17:47.981Z,14.07
2019-03-24T06:19:21.312Z,14.47
2019-03-24T06:20:55.604Z,16.80
2019-03-24T06:22:29.820Z,16.23
2019-03-24T06:24:04.147Z,14.85
2019-03-24T06:25:38.482Z,16.00
2019-03-24T06:27:12.710Z,16.97
2019-03-24T06:28:47.011Z,13.58
2019-03-24T06:30:21.318Z,14.83
2019-03-24T06:31:55.638Z,14.53
2019-03-24T06:33:29.946Z,16.20
2019-03-24T06:35:06.005Z,21.95
2019-03-24T06:36:40.306Z,16.77
2019-03-24T06:38:14.612Z,18.37
2019-03-24T06:39:48.900Z,17.17
2019-03-24T06:41:23.196Z,16.52
2019-03-24T06:42:57.519Z,16.57
2019-03-24T06:44:31.840Z,18.52
2019-03-24T06:46:06.699Z,18.65
2019-03-24T06:47:40.959Z,20.25
2019-03-24T06:49:15.193Z,21.02
2019-03-24T06:50:49.455Z,18.50
2019-03-24T06:52:23.770Z,17.57
2019-03-24T06:53:58.073Z,18.67
2019-03-24T06:55:32.293Z,16.90
2019-03-24T06:57:06.649Z,16.48
2019-03-24T06:58:40.904Z,18.92
2019-03-24T07:00:15.702Z,16.60
2019-03-24T07:01:50.012Z,16.73
2019-03-24T07:03:24.335Z,17.10
2019-03-24T07:04:58.953Z,17.20
2019-03-24T07:06:34.783Z,16.62
2019-03-24T07:08:09.093Z,16.35
2019-03-24T07:09:43.327Z,15.38
2019-03-24T07:11:17.586Z,15.15
2019-03-24T07:12:52.316Z,15.93
2019-03-24T07:14:26.625Z,15.63
2019-03-24T07:16:00.933Z,16.65
2019-03-24T07:17:36.778Z,14.20
2019-03-24T07:19:11.575Z,14.90
2019-03-24T07:20:45.885Z,14.60
2019-03-24T07:22:20.959Z,13.83
2019-03-24T07:23:55.255Z,12.50
2019-03-24T07:25:30.971Z,15.13
2019-03-24T07:27:05.296Z,12.68
2019-03-24T07:28:41.517Z,13.08
2019-03-24T07:30:15.957Z,12.58
2019-03-24T07:31:50.302Z,13.10
2019-03-24T07:33:24.676Z,14.55
2019-03-24T07:34:59.000Z,13.08
2019-03-24T07:36:33.307Z,11.55
2019-03-24T07:38:07.610Z,11.75
2019-03-24T07:39:42.004Z,11.53
2019-03-24T07:41:18.587Z,11.38
2019-03-24T07:42:52.826Z,11.22
2019-03-24T07:44:27.085Z,10.65
2019-03-24T07:46:01.540Z,11.57
2019-03-24T07:47:35.844Z,11.18
2019-03-24T07:49:10.171Z,10.60
2019-03-24T07:50:44.430Z,10.03
2019-03-24T07:52:20.106Z,10.68
2019-03-24T07:53:56.394Z,9.23
2019-03-24T07:55:30.706Z,10.70
2019-03-24T07:57:05.027Z,10.20
2019-03-24T07:58:39.361Z,9.63
2019-03-24T08:00:13.978Z,11.00
2019-03-24T08:01:48.278Z,8.80
2019-03-24T08:03:22.569Z,7.75
2019-03-24T08:04:56.824Z,9.40
2019-03-24T08:06:31.148Z,9.63
2019-03-24T08:08:07.636Z,9.38
2019-03-24T08:09:41.859Z,8.65
2019-03-24T08:11:16.202Z,6.78
2019-03-24T08:12:50.429Z,6.65
2019-03-24T08:14:24.886Z,5.65
2019-03-24T08:15:59.788Z,6.70
2019-03-24T08:17:34.097Z,6.92
2019-03-24T08:19:08.375Z,7.08
2019-03-24T08:20:42.656Z,6.50
2019-03-24T08:22:16.896Z,6.92
2019-03-24T08:23:51.229Z,6.33
2019-03-24T08:25:25.555Z,6.87
2019-03-24T08:26:59.861Z,6.42
2019-03-24T08:28:34.145Z,6.00
2019-03-24T08:30:09.320Z,5.90
2019-03-24T08:31:43.564Z,5.17
2019-03-24T08:33:17.858Z,6.08
2019-03-24T08:34:52.163Z,5.45
2019-03-24T08:36:26.930Z,6.53
2019-03-24T08:38:01.149Z,6.37
2019-03-24T08:39:37.708Z,6.55
2019-03-24T08:41:12.016Z,6.75
2019-03-24T08:42:46.284Z,6.20
2019-03-24T08:44:20.615Z,6.28
2019-03-24T08:45:54.936Z,6.35
2019-03-24T08:47:29.212Z,6.17
2019-03-24T08:49:03.557Z,6.97
2019-03-24T08:50:37.853Z,6.65
2019-03-24T08:52:12.083Z,6.37
2019-03-24T08:53:46.392Z,6.40
2019-03-24T08:55:20.753Z,7.00
2019-03-24T08:56:55.082Z,5.78
2019-03-24T08:58:29.327Z,6.33
2019-03-24T09:00:04.768Z,6.10
2019-03-24T09:01:38.973Z,5.90
2019-03-24T09:03:13.288Z,7.28
2019-03-24T09:04:47.550Z,6.62
2019-03-24T09:06:21.930Z,6.80
2019-03-24T09:07:56.718Z,6.10
2019-03-24T09:09:31.006Z,6.40
2019-03-24T09:11:05.417Z,6.83
2019-03-24T09:12:39.705Z,6.90
2019-03-24T09:14:14.009Z,6.60
2019-03-24T09:15:51.264Z,6.12
2019-03-24T09:17:25.508Z,7.30
2019-03-24T09:18:59.811Z,6.40
2019-03-24T09:20:41.586Z,6.87
2019-03-24T09:22:09.902Z,7.00
2019-03-24T09:23:44.419Z,7.03
2019-03-24T09:25:18.817Z,7.47
2019-03-24T09:26:53.154Z,7.05
2019-03-24T09:28:27.453Z,7.00
2019-03-24T09:30:01.810Z,7.30
2019-03-24T09:31:36.416Z,7.90
2019-03-24T09:33:10.683Z,7.40
2019-03-24T09:34:44.906Z,8.15
2019-03-24T09:36:19.142Z,8.13
2019-03-24T09:37:53.416Z,7.15
2019-03-24T09:39:28.208Z,7.40
2019-03-24T09:41:02.556Z,6.87
2019-03-24T09:42:36.869Z,7.50
2019-03-24T09:44:12.802Z,7.72
2019-03-24T09:45:47.147Z,7.70
2019-03-24T09:47:21.437Z,7.45
2019-03-24T09:49:03.068Z,7.75
2019-03-24T09:50:31.603Z,7.37
2019-03-24T09:52:05.857Z,7.05
2019-03-24T09:53:40.127Z,7.45
2019-03-24T09:55:14.386Z,7.85
2019-03-24T09:56:48.701Z,6.95
2019-03-24T09:58:22.942Z,7.65
2019-03-24T09:59:57.247Z,6.55
2019-03-24T10:01:31.613Z,6.97
2019-03-24T10:03:06.016Z,6.87
2019-03-24T10:04:40.312Z,6.67
2019-03-24T10:06:14.598Z,7.22
2019-03-24T10:07:48.941Z,6.20
2019-03-24T10:09:23.218Z,7.22
2019-03-24T10:10:57.444Z,6.70
2019-03-24T10:12:31.739Z,6.85
2019-03-24T10:14:06.047Z,6.95
2019-03-24T10:15:40.285Z,7.35
2019-03-24T10:17:14.661Z,7.20
2019-03-24T10:18:48.950Z,6.80
2019-03-24T10:20:23.229Z,6.92
2019-03-24T10:21:57.455Z,6.65
2019-03-24T10:23:31.673Z,7.90
2019-03-24T10:25:07.462Z,6.95
2019-03-24T10:26:42.507Z,7.28
2019-03-24T10:28:16.847Z,14.23
2019-03-24T10:29:51.167Z,11.95
2019-03-24T10:31:25.447Z,8.40
2019-03-24T10:32:59.796Z,7.35
2019-03-24T10:34:34.101Z,7.20
2019-03-24T10:36:11.426Z,7.53
2019-03-24T10:37:45.734Z,7.37
2019-03-24T10:39:20.072Z,6.28
2019-03-24T10:40:54.445Z,7.37
2019-03-24T10:42:29.261Z,6.65
2019-03-24T10:44:03.482Z,7.72
2019-03-24T10:45:37.757Z,7.00
2019-03-24T10:47:13.570Z,7.17
2019-03-24T10:48:47.882Z,6.62
2019-03-24T10:50:22.143Z,12.82
2019-03-24T10:51:56.363Z,6.70
2019-03-24T10:53:31.124Z,9.73
2019-03-24T10:55:12.167Z,6.40
2019-03-24T10:56:46.488Z,7.65
2019-03-24T10:58:20.685Z,6.28
2019-03-24T10:59:55.029Z,8.80
2019-03-24T11:01:29.337Z,7.17
2019-03-24T11:03:05.251Z,6.67
2019-03-24T11:04:39.530Z,6.15
2019-03-24T11:06:13.894Z,6.22
2019-03-24T11:07:48.206Z,6.08
2019-03-24T11:09:22.549Z,5.97
2019-03-24T11:10:56.862Z,6.10
2019-03-24T11:12:31.162Z,6.20
2019-03-24T11:14:05.451Z,5.67
2019-03-24T11:15:39.781Z,6.62
2019-03-24T11:17:14.104Z,5.62
2019-03-24T11:18:48.525Z,6.45
2019-03-24T11:20:22.860Z,5.83
2019-03-24T11:21:57.068Z,6.85
2019-03-24T11:23:31.361Z,6.12
2019-03-24T11:25:07.868Z,5.70
2019-03-24T11:26:42.201Z,5.87
2019-03-24T11:28:16.544Z,7.90
2019-03-24T11:29:50.797Z,7.05
2019-03-24T11:31:25.092Z,12.37
2019-03-24T11:32:59.356Z,6.25
2019-03-24T11:34:34.036Z,6.60
2019-03-24T11:36:08.304Z,8.18
2019-03-24T11:37:42.628Z,7.08
2019-03-24T11:39:16.924Z,7.58
2019-03-24T11:40:51.212Z,7.70
2019-03-24T11:42:25.500Z,7.62
2019-03-24T11:44:00.200Z,7.03
2019-03-24T11:45:34.499Z,6.95
2019-03-24T11:47:10.420Z,6.80
2019-03-24T11:48:44.716Z,6.90
2019-03-24T11:50:19.008Z,6.72
2019-03-24T11:51:53.372Z,6.78
2019-03-24T11:53:27.645Z,6.60
2019-03-24T11:55:01.867Z,6.47
2019-03-24T11:56:36.219Z,6.50
2019-03-24T11:58:10.514Z,6.72
2019-03-24T11:59:45.235Z,6.92
2019-03-24T12:01:19.465Z,6.70
2019-03-24T12:02:53.692Z,6.87
2019-03-24T12:04:27.954Z,6.58
2019-03-24T12:06:02.260Z,7.60
2019-03-24T12:07:36.640Z,6.92
2019-03-24T12:09:10.917Z,6.62
2019-03-24T12:10:45.200Z,6.85
2019-03-24T12:12:19.448Z,6.30
2019-03-24T12:13:53.767Z,6.37
2019-03-24T12:15:28.202Z,7.03
2019-03-24T12:17:02.490Z,6.72
2019-03-24T12:18:36.687Z,6.47
2019-03-24T12:20:11.390Z,6.08
2019-03-24T12:21:45.654Z,6.33
2019-03-24T12:23:21.049Z,5.95
2019-03-24T12:24:55.387Z,5.33
2019-03-24T12:26:29.653Z,6.72
2019-03-24T12:28:04.003Z,6.10
2019-03-24T12:29:38.263Z,6.15
2019-03-24T12:31:12.786Z,5.97
2019-03-24T12:32:47.067Z,5.50
2019-03-24T12:34:21.345Z,6.40
2019-03-24T12:35:55.589Z,7.65
2019-03-24T12:37:29.897Z,5.17
2019-03-24T12:39:05.206Z,6.03
2019-03-24T12:40:40.499Z,5.90
2019-03-24T12:42:14.750Z,5.50
2019-03-24T12:43:49.070Z,6.08
2019-03-24T12:45:23.933Z,6.33
2019-03-24T12:46:58.854Z,6.35
2019-03-24T12:48:33.190Z,5.22
2019-03-24T12:50:09.977Z,6.10
2019-03-24T12:51:44.798Z,4.90
2019-03-24T12:53:19.099Z,5.15
2019-03-24T12:54:53.394Z,5.28
2019-03-24T12:56:27.682Z,5.60
2019-03-24T12:58:02.035Z,5.85
2019-03-24T12:59:36.250Z,5.05
2019-03-24T13:01:10.471Z,5.70
2019-03-24T13:02:45.256Z,6.20
2019-03-24T13:04:19.597Z,7.12
2019-03-24T13:05:53.822Z,5.17
2019-03-24T13:07:28.068Z,4.83
2019-03-24T13:09:02.459Z,5.25
2019-03-24T13:10:36.704Z,5.65
2019-03-24T13:12:10.950Z,6.10
2019-03-24T13:13:45.223Z,6.72
2019-03-24T13:15:19.445Z,6.00
2019-03-24T13:16:54.148Z,5.80
2019-03-24T13:18:28.870Z,6.87
2019-03-24T13:20:04.257Z,6.40
2019-03-24T13:21:38.917Z,6.37
2019-03-24T13:23:13.141Z,6.50
2019-03-24T13:24:47.441Z,7.15
2019-03-24T13:26:21.789Z,7.33
2019-03-24T13:27:56.029Z,6.55
2019-03-24T13:29:30.255Z,8.83
2019-03-24T13:31:04.464Z,7.72
2019-03-24T13:32:38.724Z,7.83
2019-03-24T13:34:13.415Z,6.90
2019-03-24T13:35:49.274Z,6.35
2019-03-24T13:37:23.562Z,6.28
2019-03-24T13:38:57.899Z,6.03
2019-03-24T13:40:32.235Z,5.75
2019-03-24T13:42:06.523Z,5.53
2019-03-24T13:43:40.865Z,6.20
2019-03-24T13:45:15.159Z,7.62
2019-03-24T13:46:49.391Z,5.87
2019-03-24T13:48:23.675Z,5.65
2019-03-24T13:49:58.544Z,5.50
2019-03-24T13:51:32.825Z,5.78
2019-03-24T13:53:07.675Z,4.90
2019-03-24T13:54:41.985Z,6.40
2019-03-24T13:56:16.281Z,6.72
2019-03-24T13:57:50.570Z,6.67
2019-03-24T13:59:24.874Z,5.10
2019-03-24T14:00:59.126Z,5.22
2019-03-24T14:02:33.458Z,5.90
2019-03-24T14:04:07.676Z,5.42
2019-03-24T14:05:42.296Z,8.63
2019-03-24T14:07:16.571Z,5.28
2019-03-24T14:08:50.799Z,4.33
2019-03-24T14:10:25.018Z,4.85
2019-03-24T14:11:59.247Z,4.62
2019-03-24T14:13:33.596Z,4.42
2019-03-24T14:15:08.880Z,3.52
2019-03-24T14:16:43.164Z,4.67
2019-03-24T14:18:17.389Z,4.62
2019-03-24T14:19:51.724Z,3.85
2019-03-24T14:21:26.010Z,4.17
2019-03-24T14:23:00.529Z,4.30
2019-03-24T14:24:34.833Z,3.95
2019-03-24T14:26:09.117Z,3.52
2019-03-24T14:27:43.466Z,4.20
2019-03-24T14:29:17.754Z,4.17
2019-03-24T14:30:52.127Z,3.80
2019-03-24T14:32:26.429Z,4.10
2019-03-24T14:34:00.745Z,8.10
2019-03-24T14:35:35.044Z,8.50
2019-03-24T14:37:11.667Z,5.30
2019-03-24T14:38:45.180Z,4.00
2019-03-24T14:40:21.072Z,7.83
2019-03-24T14:41:55.378Z,15.65
2019-03-24T14:43:29.737Z,9.43
2019-03-24T14:45:05.383Z,4.00
2019-03-24T14:46:39.624Z,4.33
2019-03-24T14:48:13.936Z,4.90
2019-03-24T14:49:48.205Z,4.03
2019-03-24T14:51:22.526Z,6.78
2019-03-24T14:52:56.804Z,6.12
2019-03-24T14:54:31.113Z,29.65
2019-03-24T14:56:05.410Z,16.23
2019-03-24T14:57:39.769Z,51.10
2019-03-24T14:59:13.990Z,29.50
2019-03-24T15:00:49.835Z,12.10
2019-03-24T15:02:24.137Z,7.30
2019-03-24T15:03:58.475Z,19.23
2019-03-24T15:05:32.776Z,7.12
2019-03-24T15:07:07.084Z,26.87
2019-03-24T15:08:41.410Z,9.75
2019-03-24T15:10:15.678Z,5.33
2019-03-24T15:11:49.999Z,6.85
2019-03-24T15:13:24.289Z,6.30
2019-03-24T15:14:59.026Z,6.12
2019-03-24T15:16:33.399Z,5.62
2019-03-24T15:18:07.745Z,6.47
2019-03-24T15:19:41.961Z,5.65
2019-03-24T15:21:16.296Z,12.03
2019-03-24T15:22:50.583Z,5.72
2019-03-24T15:24:25.020Z,6.87
2019-03-24T15:25:59.240Z,5.33
2019-03-24T15:27:35.018Z,7.95
2019-03-24T15:29:09.380Z,9.20
2019-03-24T15:30:43.625Z,5.42
2019-03-24T15:32:17.932Z,6.45
2019-03-24T15:33:52.257Z,6.25
2019-03-24T15:35:28.081Z,8.78
2019-03-24T15:37:02.298Z,9.20
2019-03-24T15:38:36.611Z,10.65
2019-03-24T15:40:11.111Z,53.78
2019-03-24T15:41:45.366Z,10.98
2019-03-24T15:43:19.670Z,6.78
2019-03-24T15:44:53.981Z,7.25
2019-03-24T15:46:28.297Z,5.90
2019-03-24T15:48:02.563Z,6.40
2019-03-24T15:49:36.872Z,6.83
2019-03-24T15:51:16.766Z,14.60
2019-03-24T15:52:47.161Z,9.00
2019-03-24T15:54:22.005Z,40.50
2019-03-24T15:55:56.332Z,10.10
2019-03-24T15:57:30.701Z,12.70
2019-03-24T15:59:04.995Z,14.43
2019-03-24T16:00:44.417Z,11.60
2019-03-24T16:02:18.733Z,9.20
2019-03-24T16:03:53.025Z,8.73
2019-03-24T16:05:27.326Z,7.67
2019-03-24T16:07:01.651Z,6.67
2019-03-24T16:08:35.911Z,7.83
2019-03-24T16:10:10.956Z,9.48
2019-03-24T16:11:45.196Z,11.35
2019-03-24T16:13:19.520Z,17.65
2019-03-24T16:14:53.808Z,10.48
2019-03-24T16:16:28.161Z,16.12
2019-03-24T16:18:02.529Z,20.55
2019-03-24T16:19:36.753Z,24.35
2019-03-24T16:21:10.998Z,28.07
2019-03-24T16:22:45.288Z,17.40
2019-03-24T16:24:19.622Z,13.80
2019-03-24T16:25:55.732Z,19.62
2019-03-24T16:27:30.183Z,17.70
2019-03-24T16:29:05.883Z,16.95
2019-03-24T16:30:40.168Z,36.17
2019-03-24T16:32:14.533Z,42.75
2019-03-24T16:33:48.873Z,46.37
2019-03-24T16:35:23.083Z,56.68
2019-03-24T16:36:57.427Z,63.20
2019-03-24T16:38:31.773Z,70.15
2019-03-24T16:40:10.096Z,61.48
2019-03-24T16:41:44.396Z,56.08
2019-03-24T16:43:18.713Z,45.73
2019-03-24T16:44:53.080Z,50.38
2019-03-24T16:46:27.721Z,47.93
2019-03-24T16:48:02.045Z,50.48
2019-03-24T16:49:36.361Z,56.63
2019-03-24T16:51:10.664Z,56.00
2019-03-24T16:52:44.981Z,59.18
2019-03-24T16:54:19.380Z,58.68
2019-03-24T16:55:53.570Z,50.63
2019-03-24T16:57:29.105Z,53.63
2019-03-24T16:59:03.406Z,44.53
2019-03-24T17:00:37.714Z,39.67
2019-03-24T17:02:12.014Z,47.58
2019-03-24T17:03:46.257Z,43.92
2019-03-24T17:05:20.585Z,35.05
2019-03-24T17:06:54.908Z,35.33
2019-03-24T17:08:29.191Z,33.95
2019-03-24T17:10:04.208Z,37.67
2019-03-24T17:11:38.521Z,36.73
2019-03-24T17:13:12.876Z,19.95
2019-03-24T17:14:47.208Z,18.05
2019-03-24T17:16:21.538Z,16.52
2019-03-24T17:17:55.886Z,16.73
2019-03-24T17:19:30.186Z,14.87
2019-03-24T17:21:05.805Z,13.20
2019-03-24T17:22:40.693Z,15.32
2019-03-24T17:24:15.002Z,14.35
2019-03-24T17:25:49.985Z,14.58
2019-03-24T17:27:24.831Z,16.50
2019-03-24T17:28:59.200Z,19.05
2019-03-24T17:30:35.072Z,19.32
2019-03-24T17:32:09.377Z,25.92
2019-03-24T17:33:43.724Z,21.52
2019-03-24T17:35:17.996Z,23.87
2019-03-24T17:36:52.255Z,19.80
2019-03-24T17:38:26.597Z,23.30
2019-03-24T17:40:00.824Z,20.92
2019-03-24T17:41:35.891Z,28.00
2019-03-24T17:43:10.097Z,33.80
2019-03-24T17:44:44.419Z,28.50
2019-03-24T17:46:19.557Z,27.13
2019-03-24T17:47:54.050Z,23.45
2019-03-24T17:49:28.336Z,33.78
2019-03-24T17:51:02.694Z,40.33
2019-03-24T17:52:37.922Z,31.97
2019-03-24T17:54:12.255Z,34.13
2019-03-24T17:55:46.533Z,24.07
2019-03-24T17:57:20.841Z,31.05
2019-03-24T17:58:55.091Z,13.22
2019-03-24T18:00:45.370Z,13.32
2019-03-24T18:02:19.757Z,13.05
2019-03-24T18:03:53.979Z,11.63
2019-03-24T18:05:29.689Z,11.97
2019-03-24T18:07:04.002Z,9.43
2019-03-24T18:08:41.494Z,10.58
2019-03-24T18:10:15.727Z,10.20
2019-03-24T18:11:49.951Z,14.75
2019-03-24T18:13:24.240Z,15.28
2019-03-24T18:14:58.541Z,13.20
2019-03-24T18:16:32.853Z,10.50
2019-03-24T18:18:07.167Z,15.98
2019-03-24T18:19:41.505Z,20.80
2019-03-24T18:21:16.664Z,18.60
2019-03-24T18:22:51.309Z,15.08
2019-03-24T18:24:25.612Z,12.60
2019-03-24T18:25:59.931Z,13.32
2019-03-24T18:27:34.441Z,14.80
2019-03-24T18:29:08.769Z,13.13
2019-03-24T18:30:43.094Z,10.08
2019-03-24T18:32:17.407Z,18.42
2019-03-24T18:33:51.671Z,12.80
2019-03-24T18:35:25.940Z,10.88
2019-03-24T18:37:00.257Z,10.80
2019-03-24T18:38:34.513Z,10.10
2019-03-24T18:40:09.991Z,9.58
2019-03-24T18:41:44.291Z,9.63
2019-03-24T18:43:18.518Z,9.00
2019-03-24T18:44:52.822Z,11.12
2019-03-24T18:46:27.054Z,9.60
2019-03-24T18:48:01.331Z,9.40
2019-03-24T18:49:35.716Z,10.10
2019-03-24T18:51:10.037Z,10.90
2019-03-24T18:52:44.358Z,10.13
2019-03-24T18:54:18.611Z,11.80
2019-03-24T18:55:52.945Z,11.15
2019-03-24T18:57:27.287Z,9.80
2019-03-24T18:59:03.476Z,11.15
2019-03-24T19:00:37.630Z,11.10
2019-03-24T19:02:13.704Z,13.32
2019-03-24T19:03:48.010Z,13.32
2019-03-24T19:05:23.885Z,15.83
2019-03-24T19:06:58.175Z,18.00
2019-03-24T19:08:32.453Z,11.57
2019-03-24T19:10:08.755Z,12.10
2019-03-24T19:11:44.654Z,12.47
2019-03-24T19:13:20.273Z,20.17
2019-03-24T19:14:56.841Z,23.22
2019-03-24T19:16:31.082Z,20.80
2019-03-24T19:18:05.341Z,15.23
2019-03-24T19:19:39.659Z,16.52
2019-03-24T19:21:14.036Z,14.45
2019-03-24T19:22:48.348Z,12.15
2019-03-24T19:24:22.766Z,11.10
2019-03-24T19:25:57.502Z,10.98
2019-03-24T19:27:31.734Z,10.55
2019-03-24T19:29:06.234Z,10.72
2019-03-24T19:30:42.869Z,11.53
2019-03-24T19:32:17.126Z,13.08
2019-03-24T19:33:51.549Z,14.70
2019-03-24T19:35:27.325Z,15.10
2019-03-24T19:37:02.053Z,13.70
2019-03-24T19:38:36.682Z,13.75
2019-03-24T19:40:25.759Z,12.63
2019-03-24T19:41:59.965Z,13.45
2019-03-24T19:43:34.313Z,12.65
2019-03-24T19:45:08.702Z,13.38
2019-03-24T19:46:42.919Z,16.12
2019-03-24T19:48:17.222Z,15.40
2019-03-24T19:49:51.511Z,15.30
2019-03-24T19:51:25.844Z,13.40
2019-03-24T19:53:00.197Z,13.38
2019-03-24T19:54:34.560Z,14.33
2019-03-24T19:56:08.896Z,14.50
2019-03-24T19:57:43.249Z,17.67
2019-03-24T19:59:17.971Z,12.65
2019-03-24T20:00:52.275Z,14.87
2019-03-24T20:02:26.603Z,15.25
2019-03-24T20:04:00.984Z,14.70
2019-03-24T20:05:35.243Z,15.25
2019-03-24T20:07:08.968Z,16.93
2019-03-24T20:08:42.680Z,16.37
2019-03-24T20:10:16.995Z,18.27
2019-03-24T20:11:51.388Z,18.95
2019-03-24T20:13:27.327Z,17.90
2019-03-24T20:15:01.648Z,18.85
2019-03-24T20:16:35.984Z,18.17
2019-03-24T20:18:10.208Z,22.87
2019-03-24T20:19:45.586Z,20.70
2019-03-24T20:21:19.954Z,17.52
2019-03-24T20:22:56.747Z,17.87
2019-03-24T20:24:30.246Z,19.75
2019-03-24T20:26:04.560Z,18.05
2019-03-24T20:27:38.925Z,18.98
2019-03-24T20:29:13.259Z,21.45
2019-03-24T20:30:47.557Z,16.77
2019-03-24T20:32:21.874Z,16.48
2019-03-24T20:33:56.196Z,15.70
2019-03-24T20:35:30.510Z,14.38